Time;durP1;ratioP1;P1;durP2;ratioP2;P2;SDS_P1;SDS_P2;PMS_P1;PMS_P2;Temp;Humidity;BMP_temperature;BMP_pressure;BME280_temperature;BME280_humidity;BME280_pressure;Samples;Min_cycle;Max_cycle;Signal;HPM_P1;HPM_P2
2024/01/14 00:02:48;;;;;;;4.10;2.85;;;23.30;39.80;;;;;;6233439;27;80646;-48
2024/01/14 00:05:48;;;;;;;4.57;3.08;;;23.30;39.90;;;;;;6250375;27;80379;-48
2024/01/14 00:08:48;;;;;;;4.05;2.42;;;23.30;39.80;;;;;;6249888;27;80546;-49
2024/01/14 00:11:49;;;;;;;4.80;3.25;;;23.20;39.80;;;;;;6244519;27;80717;-52
2024/01/14 00:14:50;;;;;;;3.83;3.13;;;23.20;39.80;;;;;;6245907;27;80905;-47
2024/01/14 00:17:50;;;;;;;5.18;2.80;;;23.20;39.90;;;;;;6226133;27;81204;-49
2024/01/14 00:20:51;;;;;;;3.92;2.67;;;23.10;39.90;;;;;;6249748;27;81720;-49
2024/01/14 00:23:51;;;;;;;5.38;3.53;;;23.10;39.80;;;;;;6254140;27;80364;-58
2024/01/14 00:26:52;;;;;;;5.57;3.22;;;23.10;39.80;;;;;;6252612;27;81435;-59
2024/01/14 00:29:57;;;;;;;5.10;2.90;;;23.10;39.80;;;;;;6252010;27;80682;-59
2024/01/14 00:32:57;;;;;;;4.00;3.05;;;23.10;39.80;;;;;;6252156;27;80439;-59
2024/01/14 00:35:58;;;;;;;4.07;2.70;;;23.00;39.80;;;;;;6252227;27;80363;-61
2024/01/14 00:38:58;;;;;;;4.15;3.13;;;23.10;39.70;;;;;;6249097;27;80718;-60
2024/01/14 00:41:59;;;;;;;4.70;3.05;;;23.00;39.60;;;;;;6268580;27;83277;-52
2024/01/14 00:44:59;;;;;;;4.90;3.42;;;23.00;39.60;;;;;;6275525;27;80540;-50
2024/01/14 00:48:00;;;;;;;4.28;2.85;;;23.00;39.30;;;;;;6275719;27;80768;-48
2024/01/14 00:51:00;;;;;;;5.20;3.35;;;23.00;39.20;;;;;;6276413;27;81114;-47
2024/01/14 00:54:01;;;;;;;3.90;2.92;;;23.00;39.10;;;;;;6275989;27;81096;-50
2024/01/14 00:57:03;;;;;;;4.50;2.92;;;23.00;38.90;;;;;;6278299;27;79980;-46
2024/01/14 01:00:04;;;;;;;5.10;3.17;;;22.90;38.70;;;;;;6276431;27;80518;-46
2024/01/14 01:03:04;;;;;;;5.88;3.40;;;22.90;38.50;;;;;;6277895;27;80777;-49
2024/01/14 01:06:05;;;;;;;4.28;3.05;;;22.90;38.30;;;;;;6276358;27;80181;-47
2024/01/14 01:09:06;;;;;;;3.65;2.75;;;22.90;38.30;;;;;;6264419;27;81043;-48
2024/01/14 01:12:07;;;;;;;7.68;4.03;;;22.90;38.10;;;;;;6264910;27;82581;-49
2024/01/14 01:15:07;;;;;;;4.95;3.25;;;22.90;38.10;;;;;;6253843;27;81255;-52
2024/01/14 01:18:08;;;;;;;5.00;3.15;;;22.90;38.20;;;;;;6253966;27;81463;-51
2024/01/14 01:21:08;;;;;;;5.28;3.45;;;22.90;38.50;;;;;;6267149;27;80905;-47
2024/01/14 01:24:12;;;;;;;4.97;3.00;;;22.90;38.40;;;;;;6252396;27;82368;-50
2024/01/14 01:27:12;;;;;;;4.10;3.30;;;22.90;38.40;;;;;;6259565;27;80549;-48
2024/01/14 01:30:12;;;;;;;4.40;2.85;;;22.90;38.30;;;;;;6260577;27;80416;-52
2024/01/14 01:33:13;;;;;;;5.97;3.25;;;22.80;38.20;;;;;;6268950;27;80864;-51
2024/01/14 01:36:14;;;;;;;4.25;3.15;;;22.90;38.30;;;;;;6276765;27;80632;-46
2024/01/14 01:39:15;;;;;;;3.72;2.47;;;22.90;38.40;;;;;;6278582;27;80930;-49
2024/01/14 01:42:15;;;;;;;4.07;3.00;;;22.80;38.40;;;;;;6277399;27;83139;-48
2024/01/14 01:45:16;;;;;;;4.63;2.97;;;22.90;38.30;;;;;;6264984;27;81744;-49
2024/01/14 01:48:19;;;;;;;3.00;2.70;;;22.90;38.10;;;;;;6257648;27;80367;-49
2024/01/14 01:51:19;;;;;;;3.63;2.80;;;22.80;38.20;;;;;;6270910;27;80526;-50
2024/01/14 01:54:20;;;;;;;4.22;2.88;;;22.90;38.60;;;;;;6278369;27;82160;-49
2024/01/14 01:57:20;;;;;;;2.88;2.50;;;22.80;38.30;;;;;;6250882;27;83064;-59
2024/01/14 02:00:21;;;;;;;4.10;3.00;;;22.80;38.70;;;;;;6277032;27;81374;-59
2024/01/14 02:03:21;;;;;;;2.97;2.38;;;22.80;38.50;;;;;;6250851;27;82955;-59
2024/01/14 02:06:22;;;;;;;4.65;2.90;;;22.80;38.80;;;;;;6252606;27;80841;-59
2024/01/14 02:09:22;;;;;;;3.42;2.35;;;22.80;38.70;;;;;;6248653;27;81225;-58
2024/01/14 02:12:23;;;;;;;4.03;2.72;;;22.80;38.70;;;;;;6249858;27;83019;-59
2024/01/14 02:15:24;;;;;;;2.75;2.30;;;22.80;38.50;;;;;;6248930;27;81370;-58
2024/01/14 02:18:24;;;;;;;3.60;2.30;;;22.80;38.30;;;;;;6250660;27;83883;-58
2024/01/14 02:21:25;;;;;;;4.00;2.38;;;22.80;38.20;;;;;;6277221;27;80773;-57
2024/01/14 02:24:25;;;;;;;3.85;2.53;;;22.70;38.20;;;;;;6276863;27;80765;-59
2024/01/14 02:27:26;;;;;;;3.72;2.45;;;22.70;38.20;;;;;;6253692;27;81319;-59
2024/01/14 02:30:26;;;;;;;4.18;2.85;;;22.70;38.30;;;;;;6272464;27;80570;-59
2024/01/14 02:33:27;;;;;;;2.90;2.20;;;22.70;38.30;;;;;;6273805;27;80213;-57
2024/01/14 02:36:27;;;;;;;2.72;2.10;;;22.70;38.30;;;;;;6276631;27;80597;-58
2024/01/14 02:39:28;;;;;;;3.03;2.38;;;22.70;38.30;;;;;;6256593;27;82724;-56
2024/01/14 02:42:28;;;;;;;2.85;2.08;;;22.70;38.50;;;;;;6265433;27;80366;-57
2024/01/14 02:45:29;;;;;;;3.28;2.40;;;22.70;38.50;;;;;;6265211;27;82842;-58
2024/01/14 02:48:30;;;;;;;2.80;2.10;;;22.70;38.50;;;;;;6251597;27;80613;-55
2024/01/14 02:51:30;;;;;;;3.60;2.42;;;22.70;38.50;;;;;;6251233;27;81829;-56
2024/01/14 02:54:31;;;;;;;3.53;2.15;;;22.70;38.50;;;;;;6271300;27;80719;-57
2024/01/14 02:57:32;;;;;;;2.90;2.10;;;22.70;38.40;;;;;;6273850;27;80851;-54
2024/01/14 03:00:32;;;;;;;2.00;1.80;;;22.70;38.40;;;;;;6274626;27;82575;-55
2024/01/14 03:03:33;;;;;;;2.30;1.65;;;22.70;38.60;;;;;;6272616;27;80894;-56
2024/01/14 03:06:33;;;;;;;1.98;1.73;;;22.70;39.30;;;;;;6265945;27;80280;-54
2024/01/14 03:09:34;;;;;;;3.28;1.77;;;22.70;38.70;;;;;;6276708;27;80119;-61
2024/01/14 03:12:34;;;;;;;2.65;2.05;;;22.70;38.60;;;;;;6253825;27;81127;-59
2024/01/14 03:15:35;;;;;;;2.42;2.05;;;22.70;38.80;;;;;;6275763;27;80646;-60
2024/01/14 03:18:36;;;;;;;4.55;2.97;;;22.70;39.20;;;;;;6265107;27;80783;-60
2024/01/14 03:21:37;;;;;;;2.22;1.90;;;22.70;39.40;;;;;;6275570;27;81081;-59
2024/01/14 03:24:37;;;;;;;3.03;2.13;;;22.70;39.50;;;;;;6263131;27;80495;-59
2024/01/14 03:27:38;;;;;;;2.47;1.60;;;22.70;39.60;;;;;;6274069;27;80738;-60
2024/01/14 03:30:38;;;;;;;1.63;1.52;;;22.70;40.60;;;;;;6268618;27;80411;-59
2024/01/14 03:33:39;;;;;;;3.08;1.77;;;22.60;40.80;;;;;;6266541;27;80944;-59
2024/01/14 03:36:39;;;;;;;2.35;1.77;;;22.70;40.90;;;;;;6250555;27;86181;-60
2024/01/14 03:39:40;;;;;;;2.45;1.63;;;22.70;40.90;;;;;;6251817;27;80490;-60
2024/01/14 03:42:40;;;;;;;2.35;1.67;;;22.60;40.60;;;;;;6252331;27;80974;-62
2024/01/14 03:45:41;;;;;;;2.08;1.75;;;22.70;40.60;;;;;;6252097;27;80823;-56
2024/01/14 03:48:42;;;;;;;3.20;1.77;;;22.60;40.80;;;;;;6275780;27;80430;-57
2024/01/14 03:51:42;;;;;;;2.67;1.77;;;22.70;41.90;;;;;;6250882;27;80427;-58
2024/01/14 03:54:43;;;;;;;2.97;1.90;;;22.70;40.80;;;;;;6258589;27;80810;-56
2024/01/14 03:57:43;;;;;;;2.80;1.55;;;22.60;40.20;;;;;;6273831;27;81731;-57
2024/01/14 04:00:44;;;;;;;2.92;1.70;;;22.60;41.00;;;;;;6255455;27;80323;-57
2024/01/14 04:03:45;;;;;;;2.30;1.75;;;22.60;41.00;;;;;;6249831;27;80836;-58
2024/01/14 04:06:45;;;;;;;4.18;2.05;;;22.60;40.80;;;;;;6251158;27;81032;-61
2024/01/14 04:09:45;;;;;;;1.95;1.60;;;22.60;40.70;;;;;;6274922;27;80515;-61
2024/01/14 04:12:46;;;;;;;2.55;1.90;;;22.60;40.40;;;;;;6273902;27;80572;-60
2024/01/14 04:15:47;;;;;;;3.15;1.67;;;22.60;40.80;;;;;;6272873;27;80704;-61
2024/01/14 04:18:47;;;;;;;1.50;1.40;;;22.60;40.50;;;;;;6273874;27;80349;-60
2024/01/14 04:21:48;;;;;;;1.50;1.40;;;22.60;40.10;;;;;;6272822;27;84748;-61
2024/01/14 04:24:49;;;;;;;2.15;1.60;;;22.70;40.20;;;;;;6262248;27;80505;-58
2024/01/14 04:27:49;;;;;;;1.88;1.55;;;22.70;40.20;;;;;;6250969;27;80945;-56
2024/01/14 04:30:52;;;;;;;2.33;1.67;;;22.70;40.30;;;;;;6263632;27;80747;-56
2024/01/14 04:33:52;;;;;;;2.20;1.50;;;22.70;40.20;;;;;;6253715;27;80939;-54
2024/01/14 04:36:53;;;;;;;2.45;1.60;;;22.80;40.40;;;;;;6250464;27;80472;-54
2024/01/14 04:39:55;;;;;;;1.90;1.60;;;22.80;40.70;;;;;;6248862;27;80527;-54
2024/01/14 04:42:55;;;;;;;2.10;1.42;;;22.80;40.80;;;;;;6266390;27;80279;-48
2024/01/14 04:45:56;;;;;;;2.15;1.65;;;22.90;41.10;;;;;;6278106;27;80642;-48
2024/01/14 04:48:56;;;;;;;2.38;1.67;;;22.90;41.50;;;;;;6278851;27;80277;-48
2024/01/14 04:51:57;;;;;;;2.05;1.70;;;22.90;41.00;;;;;;6278200;27;80774;-49
2024/01/14 04:54:57;;;;;;;2.22;1.83;;;23.00;41.60;;;;;;6278569;27;81536;-51
2024/01/14 04:57:58;;;;;;;1.80;1.50;;;23.00;41.20;;;;;;6264489;27;80321;-50
2024/01/14 05:00:58;;;;;;;2.45;1.67;;;23.00;41.40;;;;;;6277075;27;80077;-52
2024/01/14 05:03:59;;;;;;;2.25;1.77;;;23.00;41.40;;;;;;6274999;27;81131;-50
2024/01/14 05:06:59;;;;;;;2.15;1.80;;;23.00;41.50;;;;;;6271900;27;81954;-52
2024/01/14 05:10:00;;;;;;;1.60;1.50;;;23.00;41.10;;;;;;6269116;27;81196;-52
2024/01/14 05:13:00;;;;;;;2.00;1.80;;;23.00;41.00;;;;;;6251333;27;80468;-48
2024/01/14 05:16:01;;;;;;;2.13;1.70;;;23.10;41.40;;;;;;6241802;27;81487;-49
2024/01/14 05:19:01;;;;;;;2.05;1.83;;;23.10;41.20;;;;;;6241811;28;82281;-50
2024/01/14 05:22:02;;;;;;;1.98;1.67;;;23.10;41.10;;;;;;6252684;27;81173;-47
2024/01/14 05:25:02;;;;;;;1.70;1.55;;;23.10;41.10;;;;;;6252473;28;79970;-49
2024/01/14 05:28:03;;;;;;;2.33;1.92;;;23.10;41.10;;;;;;6251945;27;82779;-46
2024/01/14 05:31:03;;;;;;;1.85;1.65;;;23.20;41.20;;;;;;6251693;27;80318;-49
2024/01/14 05:34:04;;;;;;;2.22;1.80;;;23.20;41.10;;;;;;6234922;28;83586;-48
2024/01/14 05:37:04;;;;;;;2.35;1.90;;;23.20;41.30;;;;;;6252295;27;81760;-59
2024/01/14 05:40:05;;;;;;;2.20;1.83;;;23.20;41.50;;;;;;6250944;28;80594;-59
2024/01/14 05:43:06;;;;;;;2.00;1.80;;;23.20;41.20;;;;;;6251133;28;80316;-60
2024/01/14 05:46:06;;;;;;;1.92;1.60;;;23.20;41.20;;;;;;6247970;27;80745;-57
2024/01/14 05:49:06;;;;;;;2.55;2.10;;;23.20;41.40;;;;;;6237984;27;82458;-59
2024/01/14 05:52:07;;;;;;;2.13;1.73;;;23.20;41.60;;;;;;6228316;28;80364;-58
2024/01/14 05:55:08;;;;;;;2.88;1.80;;;23.20;41.40;;;;;;6232732;27;80876;-60
2024/01/14 05:58:08;;;;;;;3.90;1.50;;;23.20;41.10;;;;;;6250271;28;80305;-60
2024/01/14 06:01:09;;;;;;;3.70;2.10;;;23.20;41.60;;;;;;6249422;28;80267;-61
2024/01/14 06:04:09;;;;;;;3.00;1.92;;;23.20;41.60;;;;;;6250754;28;81180;-60
2024/01/14 06:07:10;;;;;;;2.30;1.92;;;23.20;41.70;;;;;;6250051;28;81115;-58
2024/01/14 06:10:10;;;;;;;4.80;1.70;;;23.20;41.40;;;;;;6254960;27;81429;-60
2024/01/14 06:13:11;;;;;;;2.70;2.00;;;23.20;41.30;;;;;;6274953;27;80699;-63
2024/01/14 06:16:11;;;;;;;4.05;1.88;;;23.20;41.10;;;;;;6275535;27;81729;-61
2024/01/14 06:19:12;;;;;;;2.22;1.70;;;23.20;41.10;;;;;;6271591;27;81372;-60
2024/01/14 06:22:12;;;;;;;9.45;2.30;;;23.10;41.10;;;;;;6255097;27;80742;-60
2024/01/14 06:25:13;;;;;;;3.25;1.63;;;23.10;40.50;;;;;;6275031;27;81772;-62
2024/01/14 06:28:13;;;;;;;1.65;1.50;;;23.10;40.90;;;;;;6274779;27;80227;-59
2024/01/14 06:31:14;;;;;;;2.10;1.90;;;23.10;40.60;;;;;;6274254;27;82468;-62
2024/01/14 06:34:14;;;;;;;5.82;2.55;;;23.10;40.40;;;;;;6273163;27;81266;-61
2024/01/14 06:37:15;;;;;;;2.83;1.83;;;23.10;40.30;;;;;;6273432;27;81476;-63
2024/01/14 06:40:15;;;;;;;1.90;1.75;;;23.00;39.80;;;;;;6266910;27;80632;-63
2024/01/14 06:43:16;;;;;;;2.45;1.80;;;23.00;39.80;;;;;;6270101;27;80959;-62
2024/01/14 06:46:16;;;;;;;5.30;2.33;;;23.00;39.90;;;;;;6276332;27;81036;-61
2024/01/14 06:49:17;;;;;;;2.05;1.85;;;23.00;40.10;;;;;;6271326;27;82189;-59
2024/01/14 06:52:22;;;;;;;3.83;2.25;;;22.90;39.70;;;;;;6268541;27;81564;-57
2024/01/14 06:55:22;;;;;;;8.05;2.20;;;22.90;39.90;;;;;;6256736;27;82519;-56
2024/01/14 06:58:23;;;;;;;5.75;2.08;;;22.90;39.80;;;;;;6266049;27;80530;-58
2024/01/14 07:01:24;;;;;;;4.95;1.83;;;22.90;40.10;;;;;;6275184;27;80755;-57
2024/01/14 07:04:24;;;;;;;3.83;2.17;;;22.90;40.60;;;;;;6272915;27;82019;-55
2024/01/14 07:07:25;;;;;;;3.65;2.17;;;22.90;40.90;;;;;;6276159;27;80523;-52
2024/01/14 07:10:25;;;;;;;4.05;2.08;;;22.90;41.10;;;;;;6265597;27;80253;-57
2024/01/14 07:13:26;;;;;;;4.50;2.30;;;22.90;42.20;;;;;;6248884;28;80564;-53
2024/01/14 07:16:26;;;;;;;2.88;1.85;;;22.90;42.60;;;;;;6243911;28;81660;-57
2024/01/14 07:19:27;;;;;;;2.95;2.13;;;22.90;42.40;;;;;;6236496;27;82526;-57
2024/01/14 07:22:27;;;;;;;1.98;1.70;;;22.90;43.40;;;;;;6249872;27;80080;-54
2024/01/14 07:25:28;;;;;;;3.40;1.67;;;23.00;43.40;;;;;;6250904;28;80655;-57
2024/01/14 07:28:30;;;;;;;2.92;1.70;;;23.00;44.20;;;;;;6249213;27;80705;-54
2024/01/14 07:31:31;;;;;;;3.28;1.90;;;23.00;44.30;;;;;;6249209;27;80489;-58
2024/01/14 07:34:31;;;;;;;4.03;1.90;;;22.90;44.70;;;;;;6250005;27;80492;-52
2024/01/14 07:37:33;;;;;;;5.57;2.38;;;23.00;45.00;;;;;;6250097;27;81964;-50
2024/01/14 07:40:34;;;;;;;10.02;2.13;;;23.00;44.80;;;;;;6250155;27;80322;-57
2024/01/14 07:43:35;;;;;;;7.38;2.00;;;23.00;44.50;;;;;;6249347;28;80562;-56
2024/01/14 07:46:35;;;;;;;6.25;2.00;;;22.90;45.00;;;;;;6236892;27;81424;-54
2024/01/14 07:49:36;;;;;;;6.68;2.05;;;22.90;44.50;;;;;;6214219;27;80978;-54
2024/01/14 07:52:36;;;;;;;19.27;3.08;;;23.00;44.50;;;;;;6230481;27;82378;-54
2024/01/14 07:55:36;;;;;;;5.68;2.10;;;22.90;44.40;;;;;;6230914;28;81224;-50
2024/01/14 07:58:37;;;;;;;15.68;2.55;;;22.90;44.60;;;;;;6226931;27;82221;-54
2024/01/14 08:01:37;;;;;;;11.93;2.10;;;22.90;44.40;;;;;;6229371;27;81720;-50
2024/01/14 08:04:38;;;;;;;16.38;2.60;;;22.90;43.30;;;;;;6230267;27;81535;-52
2024/01/14 08:07:38;;;;;;;16.70;2.47;;;22.90;43.80;;;;;;6219413;27;81866;-52
2024/01/14 08:10:39;;;;;;;13.02;2.58;;;22.90;43.70;;;;;;6229648;27;81174;-55
2024/01/14 08:13:39;;;;;;;29.02;3.05;;;22.90;43.30;;;;;;6247066;27;81984;-56
2024/01/14 08:16:40;;;;;;;10.07;3.60;;;22.90;42.60;;;;;;6258635;27;83260;-52
2024/01/14 08:19:41;;;;;;;8.10;2.30;;;22.90;42.70;;;;;;6248158;27;82301;-54
2024/01/14 08:22:41;;;;;;;6.15;2.33;;;22.90;43.50;;;;;;6248351;27;82161;-51
2024/01/14 08:25:44;;;;;;;6.68;1.67;;;22.90;42.00;;;;;;6259002;27;81647;-53
2024/01/14 08:28:45;;;;;;;4.03;2.00;;;22.80;42.10;;;;;;6254842;27;81237;-53
2024/01/14 08:31:45;;;;;;;6.70;2.10;;;22.80;42.10;;;;;;6257440;27;81025;-54
2024/01/14 08:34:46;;;;;;;4.13;1.95;;;22.80;41.50;;;;;;6258561;27;84207;-54
2024/01/14 08:37:46;;;;;;;8.57;2.70;;;22.90;41.70;;;;;;6252757;27;81705;-53
2024/01/14 08:40:47;;;;;;;3.45;1.70;;;22.90;42.50;;;;;;6255584;27;81591;-54
2024/01/14 08:43:47;;;;;;;2.80;1.60;;;22.90;42.20;;;;;;6247460;27;83464;-51
2024/01/14 08:46:48;;;;;;;8.00;2.28;;;22.90;42.00;;;;;;6241432;27;82163;-50
2024/01/14 08:49:48;;;;;;;5.28;1.90;;;22.90;41.80;;;;;;6249439;27;81721;-48
2024/01/14 08:52:49;;;;;;;2.88;1.50;;;22.90;41.40;;;;;;6253557;27;81516;-55
2024/01/14 08:55:49;;;;;;;4.28;1.65;;;23.00;41.40;;;;;;6248535;27;81532;-53
2024/01/14 08:58:50;;;;;;;4.32;2.03;;;23.00;41.20;;;;;;6250941;27;81057;-50
2024/01/14 09:01:50;;;;;;;3.60;1.83;;;23.00;41.40;;;;;;6241757;27;82578;-50
2024/01/14 09:04:51;;;;;;;4.75;1.83;;;23.00;41.20;;;;;;6243821;27;81835;-52
2024/01/14 09:07:51;;;;;;;3.72;1.95;;;23.10;40.90;;;;;;6233141;27;82040;-55
2024/01/14 09:10:52;;;;;;;7.60;2.15;;;23.10;41.10;;;;;;6240535;27;82050;-48
2024/01/14 09:13:52;;;;;;;2.40;1.83;;;23.10;40.90;;;;;;6238470;27;82679;-51
2024/01/14 09:16:53;;;;;;;3.47;2.20;;;23.10;40.90;;;;;;6224277;27;81899;-51
2024/01/14 09:19:53;;;;;;;3.08;2.08;;;23.20;41.00;;;;;;6235662;27;82888;-50
2024/01/14 09:22:54;;;;;;;4.20;1.70;;;23.20;40.80;;;;;;6240312;27;81635;-54
2024/01/14 09:25:54;;;;;;;4.57;2.17;;;23.20;41.10;;;;;;6226452;27;87930;-55
2024/01/14 09:28:55;;;;;;;3.25;2.20;;;23.20;40.70;;;;;;6238068;27;81448;-53
2024/01/14 09:31:56;;;;;;;3.58;1.88;;;23.20;40.40;;;;;;6234283;27;81994;-53
2024/01/14 09:34:56;;;;;;;2.55;1.88;;;23.30;40.30;;;;;;6238017;27;81559;-53
2024/01/14 09:37:57;;;;;;;2.90;2.10;;;23.30;40.20;;;;;;6233961;27;81944;-51
2024/01/14 09:40:57;;;;;;;3.88;2.15;;;23.30;40.10;;;;;;6231926;27;81499;-51
2024/01/14 09:43:58;;;;;;;3.25;2.08;;;23.30;40.00;;;;;;6227339;27;81135;-55
2024/01/14 09:46:58;;;;;;;4.13;2.42;;;23.30;40.20;;;;;;6237929;27;82009;-53
2024/01/14 09:49:59;;;;;;;3.92;2.63;;;23.30;39.90;;;;;;6232148;27;81506;-50
2024/01/14 09:52:59;;;;;;;5.55;2.45;;;23.40;40.70;;;;;;6228278;27;83059;-55
2024/01/14 09:56:00;;;;;;;4.43;2.50;;;23.40;40.10;;;;;;6237126;27;85945;-53
2024/01/14 09:59:01;;;;;;;5.00;2.30;;;23.50;40.90;;;;;;6237293;27;81358;-52
2024/01/14 10:02:02;;;;;;;5.25;2.50;;;23.50;40.90;;;;;;6237454;27;81757;-54
2024/01/14 10:05:02;;;;;;;5.07;2.28;;;23.50;41.20;;;;;;6238851;27;81389;-54
2024/01/14 10:08:03;;;;;;;5.38;2.45;;;23.50;41.70;;;;;;6233884;27;82254;-53
2024/01/14 10:11:04;;;;;;;4.50;2.80;;;23.60;41.40;;;;;;6240016;27;81206;-52
2024/01/14 10:14:05;;;;;;;3.53;2.35;;;23.50;42.00;;;;;;6237965;27;81503;-49
2024/01/14 10:17:06;;;;;;;9.70;2.67;;;23.60;41.70;;;;;;6233953;27;81708;-53
2024/01/14 10:20:06;;;;;;;4.43;2.70;;;23.60;41.40;;;;;;6235454;27;83167;-55
2024/01/14 10:23:07;;;;;;;6.22;2.97;;;23.60;41.60;;;;;;6241332;27;81573;-53
2024/01/14 10:26:07;;;;;;;5.00;2.72;;;23.60;41.90;;;;;;6262803;27;80518;-54
2024/01/14 10:29:08;;;;;;;4.07;2.50;;;23.60;42.60;;;;;;6252056;27;80902;-54
2024/01/14 10:32:08;;;;;;;4.72;2.60;;;23.60;42.70;;;;;;6259640;27;81144;-54
2024/01/14 10:35:12;;;;;;;4.30;2.80;;;23.60;43.10;;;;;;6252608;27;81022;-56
2024/01/14 10:38:13;;;;;;;3.53;2.17;;;23.60;43.30;;;;;;6258030;27;80901;-54
2024/01/14 10:41:13;;;;;;;3.10;2.28;;;23.60;43.70;;;;;;6259394;27;81391;-56
2024/01/14 10:44:15;;;;;;;6.40;2.42;;;23.60;44.30;;;;;;6259236;27;81152;-56
2024/01/14 10:47:16;;;;;;;6.07;2.72;;;23.60;44.20;;;;;;6260559;27;81149;-55
2024/01/14 10:50:16;;;;;;;4.10;2.60;;;23.60;44.20;;;;;;6261952;27;81039;-57
2024/01/14 10:53:17;;;;;;;6.95;2.03;;;23.60;44.10;;;;;;6259940;27;81474;-57
2024/01/14 10:56:17;;;;;;;4.43;2.63;;;23.60;44.30;;;;;;6258038;27;80477;-58
2024/01/14 10:59:18;;;;;;;3.30;2.33;;;23.60;44.20;;;;;;6242862;27;82037;-55
2024/01/14 11:02:18;;;;;;;3.72;2.13;;;23.60;44.20;;;;;;6255876;27;84625;-55
2024/01/14 11:05:19;;;;;;;4.50;2.67;;;23.60;44.30;;;;;;6260289;27;80933;-55
2024/01/14 11:08:19;;;;;;;3.42;1.88;;;23.60;44.20;;;;;;6255496;27;80725;-59
2024/01/14 11:11:19;;;;;;;3.17;2.30;;;23.50;44.60;;;;;;6271461;27;80760;-57
2024/01/14 11:14:21;;;;;;;3.83;2.33;;;23.40;45.30;;;;;;6253884;27;81170;-56
2024/01/14 11:17:21;;;;;;;3.45;2.15;;;23.40;45.50;;;;;;6272237;27;80835;-57
2024/01/14 11:20:22;;;;;;;3.38;2.45;;;23.40;45.90;;;;;;6273898;27;80582;-56
2024/01/14 11:23:22;;;;;;;7.25;2.40;;;23.40;45.60;;;;;;6271012;27;80835;-57
2024/01/14 11:26:23;;;;;;;5.15;2.60;;;23.40;45.80;;;;;;6270957;27;80659;-55
2024/01/14 11:29:23;;;;;;;6.10;2.38;;;23.40;45.30;;;;;;6275383;27;81870;-56
2024/01/14 11:32:23;;;;;;;9.80;2.30;;;23.40;44.80;;;;;;6271977;27;81116;-55
2024/01/14 11:35:24;;;;;;;5.55;2.20;;;23.40;45.10;;;;;;6266641;27;83241;-52
2024/01/14 11:38:24;;;;;;;4.38;2.13;;;23.40;44.60;;;;;;6256613;27;83618;-52
2024/01/14 11:41:25;;;;;;;2.65;2.17;;;23.40;44.30;;;;;;6265952;27;80511;-52
2024/01/14 11:44:26;;;;;;;3.22;2.15;;;23.30;44.40;;;;;;6268996;27;80446;-52
2024/01/14 11:47:26;;;;;;;3.33;2.22;;;23.40;44.50;;;;;;6256204;27;82179;-55
2024/01/14 11:50:27;;;;;;;3.92;2.13;;;23.30;44.60;;;;;;6273154;27;81284;-52
2024/01/14 11:53:27;;;;;;;4.97;2.67;;;23.40;44.40;;;;;;6274763;27;80293;-53
2024/01/14 11:56:28;;;;;;;3.60;2.47;;;23.60;43.80;;;;;;6274473;27;81710;-51
2024/01/14 11:59:29;;;;;;;7.53;2.47;;;23.60;43.50;;;;;;6272534;27;80847;-53
2024/01/14 12:02:29;;;;;;;8.25;2.40;;;23.60;43.90;;;;;;6274361;27;80451;-50
2024/01/14 12:05:30;;;;;;;3.35;2.38;;;23.60;44.30;;;;;;6272648;27;81009;-54
2024/01/14 12:08:30;;;;;;;7.43;2.53;;;23.60;44.20;;;;;;6274436;27;80591;-53
2024/01/14 12:11:31;;;;;;;7.88;2.35;;;23.60;44.00;;;;;;6273104;27;80533;-55
2024/01/14 12:14:37;;;;;;;3.28;2.00;;;23.70;43.60;;;;;;6274794;27;80451;-55
2024/01/14 12:17:37;;;;;;;4.20;2.20;;;23.80;43.10;;;;;;6274242;27;81118;-57
2024/01/14 12:20:37;;;;;;;4.95;2.53;;;23.80;43.10;;;;;;6273701;27;80441;-58
2024/01/14 12:23:38;;;;;;;3.08;2.15;;;23.70;43.40;;;;;;6267722;27;80738;-54
2024/01/14 12:26:38;;;;;;;4.13;2.33;;;23.70;43.40;;;;;;6270328;27;80726;-56
2024/01/14 12:29:39;;;;;;;5.38;2.75;;;23.70;43.40;;;;;;6274534;27;81505;-54
2024/01/14 12:32:39;;;;;;;3.63;1.98;;;23.60;43.10;;;;;;6275346;27;82557;-55
2024/01/14 12:35:40;;;;;;;3.83;1.75;;;23.50;43.40;;;;;;6275417;27;85166;-55
2024/01/14 12:38:40;;;;;;;4.60;2.40;;;23.50;43.40;;;;;;6272818;27;80643;-53
2024/01/14 12:41:41;;;;;;;3.95;2.25;;;23.50;43.20;;;;;;6275896;27;80193;-54
2024/01/14 12:44:46;;;;;;;2.75;2.30;;;23.40;43.40;;;;;;6275229;27;80263;-52
2024/01/14 12:47:47;;;;;;;4.30;2.03;;;23.40;43.10;;;;;;6276011;27;80441;-54
2024/01/14 12:50:48;;;;;;;3.65;2.58;;;23.30;43.10;;;;;;6273217;27;81813;-55
2024/01/14 12:53:48;;;;;;;3.67;2.42;;;23.30;42.90;;;;;;6270528;27;81200;-50
2024/01/14 12:56:49;;;;;;;6.18;2.20;;;23.30;43.00;;;;;;6275620;27;81423;-50
2024/01/14 12:59:50;;;;;;;6.32;2.58;;;23.30;43.30;;;;;;6275427;27;80725;-52
2024/01/14 13:02:50;;;;;;;4.05;2.45;;;23.20;43.90;;;;;;6276113;27;81119;-56
2024/01/14 13:05:51;;;;;;;8.07;2.60;;;23.20;44.30;;;;;;6274327;27;86042;-58
2024/01/14 13:08:51;;;;;;;14.15;3.30;;;23.20;43.90;;;;;;6269203;27;80770;-58
2024/01/14 13:11:52;;;;;;;2.58;2.20;;;23.20;43.50;;;;;;6268676;27;81039;-57
2024/01/14 13:14:54;;;;;;;8.60;2.75;;;23.20;43.20;;;;;;6273522;27;80686;-58
2024/01/14 13:17:56;;;;;;;5.20;2.47;;;23.20;42.80;;;;;;6262228;27;80745;-54
2024/01/14 13:20:57;;;;;;;3.83;2.53;;;23.20;43.30;;;;;;6277850;27;80570;-57
2024/01/14 13:23:57;;;;;;;4.45;2.67;;;23.20;43.60;;;;;;6270134;27;82029;-55
2024/01/14 13:26:58;;;;;;;4.10;2.63;;;23.20;43.30;;;;;;6277059;27;81268;-58
2024/01/14 13:29:58;;;;;;;5.47;2.50;;;23.30;44.10;;;;;;6276777;27;80626;-57
2024/01/14 13:32:59;;;;;;;4.85;2.38;;;23.30;44.70;;;;;;6276930;27;81225;-58
2024/01/14 13:35:59;;;;;;;5.80;3.33;;;23.30;45.50;;;;;;6276634;27;84772;-52
2024/01/14 13:39:01;;;;;;;11.27;2.92;;;23.30;46.40;;;;;;6269127;27;82929;-55
2024/01/14 13:42:01;;;;;;;5.32;2.63;;;23.30;46.90;;;;;;6273345;27;81002;-56
2024/01/14 13:45:02;;;;;;;10.23;3.22;;;23.30;47.00;;;;;;6276670;27;80688;-57
2024/01/14 13:48:03;;;;;;;9.35;2.90;;;23.40;47.40;;;;;;6277190;27;80948;-57
2024/01/14 13:51:03;;;;;;;5.30;2.78;;;23.40;48.90;;;;;;6255136;27;80908;-54
2024/01/14 13:54:04;;;;;;;6.55;3.35;;;23.40;49.00;;;;;;6271936;27;81889;-54
2024/01/14 13:57:04;;;;;;;4.05;2.85;;;23.40;48.50;;;;;;6270280;27;81853;-54
2024/01/14 14:00:05;;;;;;;6.07;2.70;;;23.50;48.60;;;;;;6250399;27;83222;-53
2024/01/14 14:03:06;;;;;;;6.72;2.97;;;23.50;48.90;;;;;;6275211;27;80363;-52
2024/01/14 14:06:06;;;;;;;7.97;3.15;;;23.50;49.20;;;;;;6274298;27;81807;-52
2024/01/14 14:09:07;;;;;;;5.65;3.35;;;23.50;49.00;;;;;;6272920;27;80170;-53
2024/01/14 14:12:09;;;;;;;4.20;2.60;;;23.50;49.40;;;;;;6258848;27;80582;-58
2024/01/14 14:15:10;;;;;;;8.00;2.30;;;23.50;49.00;;;;;;6271307;27;80418;-59
2024/01/14 14:18:10;;;;;;;6.93;2.88;;;23.50;49.30;;;;;;6266022;27;82675;-60
2024/01/14 14:21:11;;;;;;;3.42;2.65;;;23.60;49.20;;;;;;6252363;27;83239;-61
2024/01/14 14:24:12;;;;;;;17.08;7.45;;;23.50;49.40;;;;;;6274559;27;80497;-58
2024/01/14 14:27:13;;;;;;;36.75;15.07;;;23.50;49.80;;;;;;6276512;27;81683;-57
2024/01/14 14:30:13;;;;;;;29.13;12.40;;;23.50;50.00;;;;;;6272795;27;83222;-54
2024/01/14 14:33:14;;;;;;;19.38;10.40;;;23.50;50.10;;;;;;6272753;27;83910;-53
2024/01/14 14:36:15;;;;;;;16.90;8.15;;;23.60;50.00;;;;;;6273832;27;83421;-54
2024/01/14 14:39:15;;;;;;;23.73;7.35;;;23.50;50.10;;;;;;6271555;27;83648;-55
2024/01/14 14:42:16;;;;;;;12.15;6.63;;;23.60;50.40;;;;;;6274875;27;80656;-56
2024/01/14 14:45:16;;;;;;;16.02;6.35;;;23.60;50.20;;;;;;6260132;27;80172;-56
2024/01/14 14:48:17;;;;;;;9.48;5.70;;;23.60;50.00;;;;;;6269303;27;81353;-54
2024/01/14 14:51:17;;;;;;;11.80;5.07;;;23.60;49.90;;;;;;6270203;27;80300;-55
2024/01/14 14:54:18;;;;;;;12.88;6.05;;;23.60;50.00;;;;;;6274238;27;80869;-59
2024/01/14 14:57:18;;;;;;;10.02;4.93;;;23.60;50.10;;;;;;6275757;27;81886;-55
2024/01/14 15:00:19;;;;;;;8.10;4.72;;;23.60;50.00;;;;;;6244151;27;80586;-56
2024/01/14 15:03:20;;;;;;;11.60;5.47;;;23.60;50.00;;;;;;6236925;27;84988;-57
2024/01/14 15:55:19;;;;;;;12.13;3.72;;;23.50;51.20;;;;;;6265873;27;80992;-55
2024/01/14 15:58:20;;;;;;;6.00;3.90;;;23.50;51.80;;;;;;6274544;27;81831;-57
2024/01/14 16:01:21;;;;;;;10.32;3.60;;;23.40;51.60;;;;;;6268903;27;80796;-59
2024/01/14 16:04:22;;;;;;;11.02;3.72;;;23.40;52.00;;;;;;6272924;27;81528;-57
2024/01/14 16:07:22;;;;;;;8.50;3.70;;;23.40;52.20;;;;;;6274462;27;83541;-53
2024/01/14 16:10:23;;;;;;;12.98;3.65;;;23.30;52.10;;;;;;6273044;27;80544;-58
2024/01/14 16:13:23;;;;;;;12.73;4.75;;;23.30;51.80;;;;;;6268479;27;80775;-56
2024/01/14 16:16:26;;;;;;;12.63;4.03;;;23.30;51.90;;;;;;6273386;27;80817;-55
2024/01/14 16:19:26;;;;;;;6.72;4.18;;;23.30;51.70;;;;;;6273462;27;80450;-58
2024/01/14 16:22:26;;;;;;;5.50;4.00;;;23.30;51.50;;;;;;6265310;27;80167;-57
2024/01/14 16:25:27;;;;;;;6.68;4.55;;;23.30;51.70;;;;;;6272305;27;80524;-56
2024/01/14 16:28:27;;;;;;;8.85;4.40;;;23.30;52.70;;;;;;6265938;27;83231;-55